Time;durP1;ratioP1;P1;durP2;ratioP2;P2;SDS_P1;SDS_P2;PMS_P1;PMS_P2;Temp;Humidity;BMP_temperature;BMP_pressure;BME280_temperature;BME280_humidity;BME280_pressure;Samples;Min_cycle;Max_cycle;Signal;HPM_P1;HPM_P2
2022/04/30 00:00:06;;;;;;;6.20;5.57;;;11.80;99.90;;;;;;4996162;28;20172;-65
2022/04/30 00:02:32;;;;;;;6.30;4.53;;;11.90;99.90;;;;;;4993882;28;20274;-63
2022/04/30 00:04:57;;;;;;;4.93;4.33;;;11.90;99.90;;;;;;4994184;28;20330;-64
2022/04/30 00:07:23;;;;;;;5.50;5.00;;;11.90;99.90;;;;;;5006109;28;20171;-67
2022/04/30 00:09:49;;;;;;;4.33;4.00;;;11.90;99.90;;;;;;5013239;28;20560;-66
2022/04/30 00:12:16;;;;;;;5.72;5.22;;;11.90;99.90;;;;;;5013312;28;20273;-65
2022/04/30 00:14:42;;;;;;;4.95;4.40;;;11.90;99.90;;;;;;5013534;28;20182;-65
2022/04/30 00:17:09;;;;;;;5.28;4.78;;;11.90;99.90;;;;;;5013084;28;20659;-65
2022/04/30 00:19:35;;;;;;;5.55;5.00;;;11.80;99.90;;;;;;5013481;28;20194;-66
2022/04/30 00:22:01;;;;;;;6.00;5.40;;;11.90;99.90;;;;;;4999866;28;20179;-64
2022/04/30 00:24:27;;;;;;;5.93;5.40;;;11.90;99.90;;;;;;4993675;28;20649;-66
2022/04/30 00:26:55;;;;;;;5.70;4.10;;;11.80;99.90;;;;;;4993539;28;20411;-64
2022/04/30 00:29:21;;;;;;;5.20;4.70;;;11.80;99.90;;;;;;4993916;28;20240;-66
2022/04/30 00:31:47;;;;;;;4.87;4.47;;;11.80;99.90;;;;;;4993626;28;20185;-65
2022/04/30 00:34:12;;;;;;;5.30;4.90;;;11.70;99.90;;;;;;4992438;28;20200;-67
2022/04/30 00:36:38;;;;;;;5.93;5.33;;;11.70;99.90;;;;;;5005367;28;20172;-66
2022/04/30 00:39:04;;;;;;;5.30;4.80;;;11.70;99.90;;;;;;5015186;28;20294;-67
2022/04/30 00:41:32;;;;;;;5.32;4.82;;;11.60;99.90;;;;;;5017095;28;20506;-65
2022/04/30 00:43:59;;;;;;;7.00;5.72;;;11.50;99.90;;;;;;5015804;28;20175;-65
2022/04/30 00:46:25;;;;;;;5.32;4.82;;;11.50;99.90;;;;;;5016856;28;20194;-68
2022/04/30 00:48:53;;;;;;;6.00;5.40;;;11.50;99.90;;;;;;5016373;28;20218;-66
2022/04/30 00:51:20;;;;;;;6.20;5.22;;;11.50;99.90;;;;;;5005018;28;20179;-68
2022/04/30 00:53:51;;;;;;;5.30;4.20;;;11.50;99.90;;;;;;4996924;28;20207;-64
2022/04/30 00:56:47;;;;;;;7.75;5.53;;;11.50;99.90;;;;;;4997134;28;20167;-64
2022/04/30 00:59:18;;;;;;;6.35;5.75;;;11.50;99.90;;;;;;4996735;28;20192;-64
2022/04/30 01:01:46;;;;;;;5.63;4.47;;;11.50;99.90;;;;;;4995641;28;20165;-64
2022/04/30 01:04:13;;;;;;;7.30;6.60;;;11.50;99.90;;;;;;4997044;28;20531;-65
2022/04/30 01:06:51;;;;;;;6.15;5.57;;;11.50;99.90;;;;;;5012752;28;20681;-66
2022/04/30 01:09:21;;;;;;;5.05;4.65;;;11.50;99.90;;;;;;5015974;28;20557;-67
2022/04/30 01:11:52;;;;;;;6.95;6.22;;;11.50;99.90;;;;;;5016505;28;20174;-67
2022/04/30 01:14:18;;;;;;;9.40;6.70;;;11.50;99.90;;;;;;5016492;28;20233;-65
2022/04/30 01:16:44;;;;;;;7.70;6.95;;;11.60;99.90;;;;;;5016392;28;20179;-65
2022/04/30 01:19:18;;;;;;;6.55;5.93;;;11.60;99.90;;;;;;5015744;28;20186;-66
2022/04/30 01:21:50;;;;;;;6.13;5.63;;;11.60;99.90;;;;;;4996997;28;20677;-66
2022/04/30 01:24:24;;;;;;;7.00;5.78;;;11.70;99.90;;;;;;4996639;28;20278;-67
2022/04/30 01:26:54;;;;;;;7.50;6.68;;;11.70;99.90;;;;;;4996787;28;20575;-65
2022/04/30 01:29:21;;;;;;;10.27;8.23;;;11.70;99.90;;;;;;4996361;28;20191;-66
2022/04/30 01:37:24;;;;;;;7.68;6.97;;;11.80;99.90;;;;;;4996451;28;20230;-64
2022/04/30 01:39:55;;;;;;;6.82;5.47;;;11.80;99.90;;;;;;5010115;28;20207;-65
2022/04/30 01:42:22;;;;;;;8.27;6.72;;;11.90;99.90;;;;;;5016080;28;20261;-67
2022/04/30 01:44:48;;;;;;;8.10;6.93;;;11.90;99.90;;;;;;5015683;28;20229;-65
2022/04/30 01:47:19;;;;;;;12.07;8.90;;;11.90;99.90;;;;;;5015506;28;20199;-66
2022/04/30 01:49:44;;;;;;;7.40;6.70;;;11.90;99.90;;;;;;5015415;28;20210;-66
2022/04/30 01:52:13;;;;;;;7.30;6.50;;;11.90;99.90;;;;;;5015344;28;20202;-64
2022/04/30 01:54:39;;;;;;;8.73;6.88;;;11.90;99.90;;;;;;4995784;28;20173;-65
2022/04/30 01:57:05;;;;;;;7.00;6.32;;;11.90;99.90;;;;;;4995455;28;20259;-67
2022/04/30 01:59:31;;;;;;;7.60;6.78;;;11.90;99.90;;;;;;4995913;28;20545;-66
2022/04/30 02:01:59;;;;;;;7.43;6.47;;;11.90;99.90;;;;;;4995753;28;20171;-66
2022/04/30 02:04:25;;;;;;;8.65;5.40;;;11.90;99.90;;;;;;4995967;28;20864;-66
2022/04/30 02:06:51;;;;;;;7.63;6.93;;;11.90;99.90;;;;;;4996091;28;20233;-67
2022/04/30 02:09:18;;;;;;;8.55;7.75;;;11.90;99.90;;;;;;5013782;28;20597;-65
2022/04/30 02:11:44;;;;;;;7.90;7.20;;;11.90;99.90;;;;;;5015086;28;20209;-65
2022/04/30 02:14:14;;;;;;;7.90;7.15;;;11.90;99.90;;;;;;5015105;28;20687;-67
2022/04/30 02:16:42;;;;;;;9.10;7.57;;;11.90;99.90;;;;;;5014584;28;20181;-66
2022/04/30 02:19:08;;;;;;;8.15;5.93;;;11.90;99.90;;;;;;5014575;28;20553;-65
2022/04/30 02:21:35;;;;;;;9.48;8.48;;;11.90;99.90;;;;;;5014963;28;20176;-64
2022/04/30 02:24:02;;;;;;;8.27;7.32;;;11.90;99.90;;;;;;5015015;28;20203;-64
2022/04/30 02:26:28;;;;;;;12.52;7.88;;;11.90;99.90;;;;;;5013752;28;20265;-65
2022/04/30 02:28:58;;;;;;;10.27;6.85;;;11.90;99.90;;;;;;4999598;28;20207;-65
2022/04/30 02:31:25;;;;;;;10.88;6.85;;;11.90;99.90;;;;;;4994199;28;20176;-65
2022/04/30 02:33:56;;;;;;;10.15;7.68;;;11.90;99.90;;;;;;4995348;28;20211;-65
2022/04/30 02:36:29;;;;;;;9.63;8.30;;;11.90;99.90;;;;;;4995278;28;20231;-67
2022/04/30 02:38:56;;;;;;;7.68;6.88;;;11.90;99.90;;;;;;4994700;28;20198;-64
2022/04/30 02:41:22;;;;;;;8.40;6.70;;;11.90;99.90;;;;;;4995280;28;20179;-65
2022/04/30 02:43:52;;;;;;;9.13;7.03;;;11.90;99.90;;;;;;4996632;28;20246;-66
2022/04/30 02:46:20;;;;;;;13.30;9.55;;;11.80;99.90;;;;;;4994784;28;20255;-64
2022/04/30 02:48:46;;;;;;;10.52;8.98;;;11.90;99.90;;;;;;4994328;28;20203;-65
2022/04/30 02:51:15;;;;;;;8.50;7.70;;;11.90;99.90;;;;;;4995105;28;20179;-65
2022/04/30 02:53:41;;;;;;;8.48;7.28;;;11.90;99.90;;;;;;4994788;28;20675;-66
2022/04/30 02:56:09;;;;;;;11.90;7.07;;;11.80;99.90;;;;;;4994799;28;20171;-63
2022/04/30 03:01:20;;;;;;;8.90;7.18;;;11.80;99.90;;;;;;5013937;28;20668;-65
2022/04/30 03:03:49;;;;;;;11.70;9.23;;;11.80;99.90;;;;;;5014395;28;20209;-66
2022/04/30 03:06:17;;;;;;;12.73;7.80;;;11.70;99.90;;;;;;5014375;28;20590;-66
2022/04/30 03:08:46;;;;;;;12.60;8.88;;;11.70;99.90;;;;;;5013706;28;20246;-64
2022/04/30 03:11:12;;;;;;;8.45;7.65;;;11.80;99.90;;;;;;5014332;28;20611;-66
2022/04/30 03:13:38;;;;;;;10.10;6.77;;;11.80;99.90;;;;;;5013876;28;20301;-65
2022/04/30 03:21:47;;;;;;;14.75;10.48;;;11.70;99.90;;;;;;5014325;28;20585;-65
2022/04/30 03:24:17;;;;;;;8.82;7.20;;;11.60;99.90;;;;;;5014300;28;20175;-66
2022/04/30 03:26:44;;;;;;;11.70;7.22;;;11.70;99.90;;;;;;5008995;28;20176;-65
2022/04/30 03:29:11;;;;;;;11.30;8.07;;;11.70;99.90;;;;;;4993840;28;20191;-66
2022/04/30 03:31:39;;;;;;;8.18;6.88;;;11.60;99.90;;;;;;4994180;28;20522;-66
2022/04/30 03:34:09;;;;;;;12.82;8.32;;;11.60;99.90;;;;;;4994084;28;20211;-67
2022/04/30 03:36:35;;;;;;;10.80;9.68;;;11.60;99.90;;;;;;4994252;28;20171;-65
2022/04/30 03:39:01;;;;;;;13.02;8.15;;;11.60;99.90;;;;;;5006670;28;20222;-64
2022/04/30 03:41:27;;;;;;;13.52;8.40;;;11.60;99.90;;;;;;5013834;28;20537;-65
2022/04/30 03:43:53;;;;;;;13.00;8.40;;;11.60;99.90;;;;;;5013848;28;20170;-65
2022/04/30 03:46:18;;;;;;;14.37;8.53;;;11.60;99.90;;;;;;5013519;28;20202;-66
2022/04/30 03:48:44;;;;;;;10.60;8.00;;;11.60;99.90;;;;;;5013010;28;20248;-66
2022/04/30 03:51:10;;;;;;;11.15;7.97;;;11.60;99.90;;;;;;5012369;28;20538;-65
2022/04/30 03:53:36;;;;;;;10.80;7.50;;;11.60;99.90;;;;;;5000248;28;20211;-66
2022/04/30 03:56:02;;;;;;;12.67;8.80;;;11.60;99.90;;;;;;4993967;28;20176;-68
2022/04/30 03:58:28;;;;;;;11.43;8.52;;;11.60;99.90;;;;;;4993385;28;20658;-65
2022/04/30 04:00:54;;;;;;;13.57;10.37;;;11.50;99.90;;;;;;4993829;28;20191;-65
2022/04/30 04:03:21;;;;;;;13.95;9.85;;;11.50;99.90;;;;;;4993872;28;20402;-66
2022/04/30 04:05:50;;;;;;;10.85;7.57;;;11.50;99.90;;;;;;4994090;28;20290;-65
2022/04/30 04:08:17;;;;;;;18.60;9.55;;;11.50;99.90;;;;;;5005667;28;20195;-65
2022/04/30 04:10:42;;;;;;;11.52;8.15;;;11.50;99.90;;;;;;5013512;28;20634;-66
2022/04/30 04:18:37;;;;;;;18.45;9.57;;;11.50;99.90;;;;;;5017357;28;20687;-66
2022/04/30 04:21:03;;;;;;;14.87;9.70;;;11.40;99.90;;;;;;5017336;28;20176;-66
2022/04/30 04:25:58;;;;;;;17.30;10.30;;;11.40;99.90;;;;;;5000879;28;20231;-67
2022/04/30 04:26:14;;;;;;;18.63;10.20;;;11.40;99.90;;;;;;4997428;28;20649;-67
2022/04/30 04:28:40;;;;;;;15.87;10.03;;;11.40;99.90;;;;;;4997362;28;20202;-66
2022/04/30 04:31:05;;;;;;;15.03;10.83;;;11.40;99.90;;;;;;4996033;28;20187;-67
2022/04/30 04:33:31;;;;;;;14.50;8.33;;;11.40;99.90;;;;;;4997420;28;20199;-64
2022/04/30 04:35:57;;;;;;;19.10;11.23;;;11.40;99.90;;;;;;4997894;28;20218;-64
2022/04/30 04:38:22;;;;;;;16.07;9.90;;;11.40;99.90;;;;;;4996867;28;20188;-66
2022/04/30 04:40:48;;;;;;;15.87;10.47;;;11.30;99.90;;;;;;4997384;28;20178;-66
2022/04/30 04:43:13;;;;;;;17.47;10.83;;;11.30;99.90;;;;;;5011455;28;20179;-67
2022/04/30 04:45:40;;;;;;;19.80;10.30;;;11.40;99.90;;;;;;5015636;28;20182;-65
2022/04/30 04:48:08;;;;;;;14.75;10.60;;;11.30;99.90;;;;;;5016431;28;20188;-67
2022/04/30 04:50:34;;;;;;;13.80;10.80;;;11.30;99.90;;;;;;5016645;28;20190;-67
2022/04/30 04:52:59;;;;;;;16.00;10.10;;;11.30;99.90;;;;;;5016498;28;20286;-64
2022/04/30 04:55:25;;;;;;;17.00;9.87;;;11.30;99.90;;;;;;5016633;28;20178;-65
2022/04/30 04:57:51;;;;;;;21.33;10.93;;;11.30;99.90;;;;;;5007066;28;20175;-67
2022/04/30 05:00:16;;;;;;;16.20;11.60;;;11.30;99.90;;;;;;5016854;28;20625;-65
2022/04/30 05:02:43;;;;;;;13.67;9.97;;;11.30;99.90;;;;;;5016890;28;20177;-65
2022/04/30 05:05:10;;;;;;;18.90;10.75;;;11.30;99.90;;;;;;5016625;28;20471;-67
2022/04/30 05:07:36;;;;;;;13.90;10.32;;;11.40;99.90;;;;;;5015651;28;20174;-66
2022/04/30 05:10:01;;;;;;;13.30;10.27;;;11.40;99.90;;;;;;5016972;28;20171;-65
2022/04/30 05:12:27;;;;;;;16.47;12.13;;;11.40;99.90;;;;;;5016706;28;20273;-67
2022/04/30 05:14:53;;;;;;;17.60;10.83;;;11.40;99.90;;;;;;5016221;28;20176;-65
2022/04/30 05:17:19;;;;;;;15.77;10.43;;;11.50;99.90;;;;;;5006203;28;20171;-65
2022/04/30 05:19:44;;;;;;;15.50;10.50;;;11.50;99.90;;;;;;4996637;28;20423;-66
2022/04/30 05:22:10;;;;;;;15.87;10.00;;;11.60;99.90;;;;;;4996480;28;20168;-66
2022/04/30 05:24:36;;;;;;;14.10;10.00;;;11.60;99.90;;;;;;4996300;28;20307;-64
2022/04/30 05:27:02;;;;;;;14.00;10.70;;;11.70;99.90;;;;;;4996689;28;20579;-66
2022/04/30 05:29:27;;;;;;;15.23;9.80;;;11.70;99.90;;;;;;4996641;28;21075;-68
2022/04/30 05:31:53;;;;;;;11.97;8.57;;;11.70;99.90;;;;;;5004391;28;20532;-65
2022/04/30 05:34:19;;;;;;;14.53;10.00;;;11.80;99.90;;;;;;5015829;28;20212;-66
2022/04/30 05:36:44;;;;;;;16.10;10.33;;;11.80;99.90;;;;;;5016175;28;20179;-65
2022/04/30 05:39:10;;;;;;;17.73;10.67;;;11.80;99.90;;;;;;5014194;28;20473;-66
2022/04/30 05:41:36;;;;;;;14.93;10.30;;;11.90;99.90;;;;;;5015730;28;20254;-65
2022/04/30 05:44:01;;;;;;;12.27;9.10;;;11.90;99.90;;;;;;5007907;28;20187;-66
2022/04/30 05:46:27;;;;;;;13.60;9.40;;;11.90;99.90;;;;;;4995812;28;20185;-64
2022/04/30 05:48:52;;;;;;;14.40;9.47;;;11.80;99.90;;;;;;4995608;28;20213;-67
2022/04/30 05:51:18;;;;;;;16.40;10.53;;;11.90;99.90;;;;;;4996147;28;20531;-66
2022/04/30 05:53:43;;;;;;;11.83;9.70;;;11.90;99.90;;;;;;5006524;28;20204;-66
2022/04/30 05:56:09;;;;;;;16.30;11.50;;;11.90;99.90;;;;;;5015543;28;20198;-66
2022/04/30 05:58:35;;;;;;;18.73;9.90;;;11.90;99.90;;;;;;5015172;28;20200;-66
2022/04/30 06:01:01;;;;;;;16.30;10.07;;;11.90;99.90;;;;;;5015588;28;20205;-65
2022/04/30 06:03:29;;;;;;;13.35;11.10;;;12.00;99.90;;;;;;5015581;28;20244;-66
2022/04/30 06:05:55;;;;;;;19.10;10.45;;;12.10;99.90;;;;;;5014526;28;20183;-65
2022/04/30 06:08:20;;;;;;;17.10;10.67;;;12.10;99.90;;;;;;5014471;28;20689;-65
2022/04/30 06:10:46;;;;;;;15.80;10.23;;;12.10;99.90;;;;;;5015769;28;20174;-65
2022/04/30 06:13:11;;;;;;;15.20;9.97;;;12.20;99.90;;;;;;5015086;28;20192;-63
2022/04/30 06:15:37;;;;;;;11.60;10.10;;;12.20;99.90;;;;;;5015242;28;20172;-66
2022/04/30 06:18:03;;;;;;;13.30;9.80;;;12.30;99.90;;;;;;5014717;28;20231;-66
2022/04/30 06:20:30;;;;;;;12.87;9.40;;;12.30;99.90;;;;;;5015036;28;20254;-65
2022/04/30 06:22:55;;;;;;;14.70;9.50;;;12.30;99.90;;;;;;5006430;28;20419;-65
2022/04/30 06:25:21;;;;;;;13.70;8.47;;;12.40;99.90;;;;;;4994153;28;20826;-66
2022/04/30 06:27:46;;;;;;;8.90;7.60;;;12.40;99.90;;;;;;4995432;28;20181;-65
2022/04/30 06:30:12;;;;;;;14.67;9.47;;;12.50;99.90;;;;;;4995452;28;20169;-67
2022/04/30 06:32:38;;;;;;;12.93;10.13;;;12.60;99.90;;;;;;4995468;28;20607;-67
2022/04/30 06:35:05;;;;;;;18.17;9.40;;;12.70;99.90;;;;;;4995129;28;20957;-65
2022/04/30 06:37:30;;;;;;;13.20;9.60;;;12.80;99.90;;;;;;5001032;28;20417;-66
2022/04/30 06:39:56;;;;;;;12.00;8.70;;;12.90;99.90;;;;;;5015105;28;20756;-66
2022/04/30 06:42:22;;;;;;;13.57;8.50;;;12.90;99.90;;;;;;5014967;28;20260;-65
2022/04/30 06:44:47;;;;;;;11.23;9.07;;;13.00;99.90;;;;;;5014804;28;20171;-68
2022/04/30 06:47:14;;;;;;;12.13;8.77;;;13.00;99.90;;;;;;5014180;28;20177;-67
2022/04/30 06:49:40;;;;;;;12.27;7.77;;;13.10;99.90;;;;;;4995100;28;20210;-64
2022/04/30 06:52:06;;;;;;;10.73;9.63;;;13.20;99.90;;;;;;4994909;28;20423;-64
2022/04/30 06:57:18;;;;;;;11.13;8.57;;;13.30;99.90;;;;;;4994801;28;20504;-66
2022/04/30 06:59:45;;;;;;;10.80;9.50;;;13.40;99.90;;;;;;5011690;28;20942;-64
2022/04/30 07:02:13;;;;;;;8.80;6.37;;;13.50;99.90;;;;;;5012505;28;20843;-64
2022/04/30 07:04:41;;;;;;;15.30;8.60;;;13.70;99.90;;;;;;5014267;28;20491;-63
2022/04/30 07:07:07;;;;;;;13.67;9.37;;;13.80;99.90;;;;;;5013816;28;20417;-64
2022/04/30 07:09:33;;;;;;;8.83;7.37;;;13.80;99.90;;;;;;5014025;28;20428;-64
2022/04/30 07:12:00;;;;;;;11.73;8.00;;;13.90;99.90;;;;;;5012827;28;20429;-66
2022/04/30 07:14:26;;;;;;;10.37;7.63;;;13.90;99.90;;;;;;5013895;28;20419;-66
2022/04/30 07:16:52;;;;;;;13.80;8.50;;;14.00;99.90;;;;;;5013353;28;20766;-68
2022/04/30 07:19:17;;;;;;;14.60;7.90;;;14.10;99.90;;;;;;4994332;28;20674;-70
2022/04/30 07:21:43;;;;;;;12.67;8.73;;;14.10;99.90;;;;;;4997647;28;20175;-70
2022/04/30 07:24:08;;;;;;;9.77;7.13;;;14.10;99.90;;;;;;4994303;28;20408;-68
2022/04/30 07:26:34;;;;;;;9.60;7.77;;;14.20;99.90;;;;;;4993969;28;20179;-70
2022/04/30 07:29:00;;;;;;;9.53;7.43;;;14.30;99.90;;;;;;4993764;28;20193;-69
2022/04/30 07:31:25;;;;;;;9.90;7.20;;;14.40;99.90;;;;;;4993622;28;20637;-72
2022/04/30 07:33:51;;;;;;;6.90;6.20;;;14.40;99.90;;;;;;4994107;28;20203;-70
2022/04/30 07:36:18;;;;;;;11.63;7.80;;;14.40;99.90;;;;;;4997069;28;20181;-68
2022/04/30 07:38:44;;;;;;;11.20;8.37;;;14.40;99.90;;;;;;5005034;28;20444;-68
2022/04/30 07:41:09;;;;;;;12.10;8.90;;;14.50;99.90;;;;;;5000246;28;20406;-67
2022/04/30 07:43:35;;;;;;;8.53;7.67;;;14.50;99.90;;;;;;4994760;28;20533;-67
2022/04/30 07:46:00;;;;;;;9.53;7.70;;;14.40;99.90;;;;;;4993501;28;20696;-64
2022/04/30 07:48:26;;;;;;;9.83;6.37;;;14.40;99.90;;;;;;5003719;28;20248;-64
2022/04/30 07:50:57;;;;;;;7.57;6.17;;;14.40;99.90;;;;;;5013220;28;20178;-64
2022/04/30 07:53:23;;;;;;;9.37;6.90;;;14.40;99.90;;;;;;5012976;28;20546;-65
2022/04/30 07:55:49;;;;;;;8.17;7.40;;;14.30;99.90;;;;;;5007655;28;20441;-64
2022/04/30 07:58:14;;;;;;;10.43;7.67;;;14.30;99.90;;;;;;5010621;28;20468;-65
2022/04/30 08:00:40;;;;;;;10.47;7.40;;;14.40;99.90;;;;;;5012802;28;20178;-65
2022/04/30 08:03:06;;;;;;;11.67;6.87;;;14.40;99.90;;;;;;5003947;28;20186;-64
2022/04/30 08:05:32;;;;;;;7.73;6.23;;;14.30;99.90;;;;;;5015730;28;20182;-64
2022/04/30 08:07:58;;;;;;;8.63;7.77;;;14.40;99.90;;;;;;5012859;28;20292;-62
2022/04/30 08:10:24;;;;;;;9.80;7.23;;;14.30;99.90;;;;;;5001650;28;20521;-62
2022/04/30 08:12:54;;;;;;;8.47;7.17;;;14.30;99.90;;;;;;4993103;28;20202;-64
2022/04/30 08:15:24;;;;;;;8.47;7.60;;;14.20;99.90;;;;;;5020840;28;20420;-64
2022/04/30 08:17:51;;;;;;;9.00;8.10;;;14.20;99.90;;;;;;5021810;28;20437;-63
2022/04/30 08:20:17;;;;;;;11.00;7.40;;;14.10;99.90;;;;;;5021847;28;20413;-62
2022/04/30 08:22:43;;;;;;;9.60;8.20;;;14.00;99.90;;;;;;5019505;28;20421;-63
2022/04/30 08:25:09;;;;;;;9.40;6.90;;;13.80;99.90;;;;;;5016470;28;20179;-65
2022/04/30 08:27:38;;;;;;;8.50;7.67;;;13.80;99.90;;;;;;5021196;28;20182;-63
2022/04/30 08:30:04;;;;;;;8.33;6.60;;;13.90;99.90;;;;;;5020328;28;20437;-63
2022/04/30 08:32:30;;;;;;;7.30;6.20;;;13.90;99.90;;;;;;5020814;28;20453;-64
2022/04/30 08:34:59;;;;;;;9.23;6.70;;;13.90;99.90;;;;;;5020640;28;20791;-63
2022/04/30 08:37:26;;;;;;;7.83;6.40;;;13.90;99.90;;;;;;5021228;28;20209;-63
2022/04/30 08:39:52;;;;;;;7.10;6.10;;;13.90;99.90;;;;;;5020762;28;20441;-63
2022/04/30 08:42:20;;;;;;;7.80;6.47;;;13.90;99.90;;;;;;5016050;28;20973;-62
2022/04/30 08:44:46;;;;;;;8.70;7.90;;;13.90;99.90;;;;;;5012573;28;20179;-63
2022/04/30 08:47:12;;;;;;;8.57;6.47;;;13.90;99.90;;;;;;5008884;28;20422;-63
2022/04/30 08:49:41;;;;;;;8.40;6.70;;;14.00;99.90;;;;;;4995118;28;20218;-64
2022/04/30 08:52:12;;;;;;;9.80;6.50;;;14.00;99.90;;;;;;5002870;28;20671;-67
2022/04/30 08:54:38;;;;;;;8.10;7.20;;;14.00;99.90;;;;;;5012618;28;20425;-65
2022/04/30 08:57:04;;;;;;;7.27;6.17;;;14.10;99.90;;;;;;5002822;28;20426;-63
2022/04/30 08:59:30;;;;;;;7.90;6.70;;;14.20;99.90;;;;;;5007098;28;20437;-64
2022/04/30 09:01:58;;;;;;;6.37;5.77;;;14.20;99.90;;;;;;5010939;28;20413;-63
2022/04/30 09:04:25;;;;;;;7.57;6.60;;;14.40;99.90;;;;;;5016205;28;20400;-68
2022/04/30 09:06:53;;;;;;;8.00;7.30;;;14.40;99.90;;;;;;5008947;28;20423;-66
2022/04/30 09:09:30;;;;;;;8.20;6.33;;;14.40;99.90;;;;;;4996026;28;20434;-65
2022/04/30 09:12:07;;;;;;;7.73;6.93;;;14.50;99.90;;;;;;5002563;28;20416;-66
2022/04/30 09:14:33;;;;;;;9.07;8.03;;;14.50;99.90;;;;;;5016248;28;20468;-64
2022/04/30 09:17:05;;;;;;;8.97;7.23;;;14.40;99.90;;;;;;5014411;28;20388;-64
2022/04/30 09:19:46;;;;;;;7.10;6.40;;;14.40;99.90;;;;;;5015754;28;20205;-65
2022/04/30 09:22:14;;;;;;;6.27;5.60;;;14.40;99.90;;;;;;5007947;28;20525;-63
2022/04/30 09:24:48;;;;;;;10.07;6.83;;;14.30;99.90;;;;;;4997732;28;20425;-61
2022/04/30 09:27:17;;;;;;;9.10;7.23;;;14.30;99.90;;;;;;5015364;28;20467;-66
2022/04/30 09:29:44;;;;;;;8.73;6.70;;;14.20;99.90;;;;;;5013950;28;20509;-61
2022/04/30 09:32:18;;;;;;;6.87;6.20;;;14.20;99.90;;;;;;5005377;28;20420;-62
2022/04/30 09:37:41;;;;;;;7.23;6.50;;;14.20;99.90;;;;;;4995728;28;20461;-65
2022/04/30 09:40:16;;;;;;;6.83;6.17;;;14.20;99.90;;;;;;4998901;28;20406;-61
2022/04/30 09:42:44;;;;;;;12.10;7.27;;;14.20;99.90;;;;;;5013206;28;20559;-61
2022/04/30 09:45:22;;;;;;;9.20;6.43;;;14.10;99.90;;;;;;5015310;28;20413;-61
2022/04/30 09:47:48;;;;;;;6.73;6.00;;;14.00;99.90;;;;;;5003025;28;20813;-66
2022/04/30 09:55:53;;;;;;;5.80;4.97;;;13.80;99.90;;;;;;4995965;28;20504;-61
2022/04/30 09:58:28;;;;;;;6.50;5.90;;;13.80;99.90;;;;;;4997955;28;20788;-61
2022/04/30 10:00:56;;;;;;;5.57;5.07;;;13.80;99.90;;;;;;4997153;28;20739;-60
2022/04/30 10:03:28;;;;;;;5.33;4.63;;;13.80;99.90;;;;;;5007429;28;20764;-62
2022/04/30 10:06:04;;;;;;;4.17;3.63;;;13.90;99.90;;;;;;5014756;28;20441;-63
2022/04/30 10:08:39;;;;;;;4.10;3.80;;;14.00;99.90;;;;;;5014439;28;20528;-62
2022/04/30 10:11:26;;;;;;;3.17;2.87;;;14.10;99.90;;;;;;5013829;28;20412;-62
2022/04/30 10:14:07;;;;;;;2.73;2.53;;;14.20;99.90;;;;;;5014730;28;20464;-62
2022/04/30 10:16:34;;;;;;;3.13;2.83;;;14.10;99.90;;;;;;5015096;28;20496;-63
2022/04/30 10:19:16;;;;;;;4.77;3.73;;;14.20;99.90;;;;;;5014343;28;20467;-63
2022/04/30 10:21:42;;;;;;;4.00;3.67;;;14.20;99.90;;;;;;5007070;28;20418;-65
2022/04/30 10:24:12;;;;;;;3.17;2.93;;;14.20;99.90;;;;;;4994951;28;20934;-64
2022/04/30 10:26:57;;;;;;;3.73;3.43;;;14.10;99.90;;;;;;4995133;28;20533;-64
2022/04/30 10:29:22;;;;;;;4.40;4.00;;;14.10;99.90;;;;;;4995176;28;20450;-67
2022/04/30 10:31:49;;;;;;;3.30;3.03;;;14.20;99.90;;;;;;4994954;28;20415;-63
2022/04/30 10:34:15;;;;;;;4.33;4.03;;;14.10;99.90;;;;;;4994971;28;20211;-65
2022/04/30 10:36:41;;;;;;;3.40;3.10;;;14.10;99.90;;;;;;5003973;28;20433;-63
2022/04/30 10:39:18;;;;;;;6.47;5.07;;;14.00;99.90;;;;;;5013825;28;20529;-64
2022/04/30 10:41:45;;;;;;;4.57;4.00;;;13.90;99.90;;;;;;5014563;28;20220;-65
2022/04/30 10:44:12;;;;;;;3.97;3.63;;;13.80;99.90;;;;;;5014362;28;20410;-62
2022/04/30 10:46:42;;;;;;;3.80;3.50;;;13.70;99.90;;;;;;5014816;28;20483;-63
2022/04/30 10:49:08;;;;;;;3.67;3.37;;;13.60;99.90;;;;;;5013874;28;20970;-63
2022/04/30 10:51:44;;;;;;;5.10;4.60;;;13.40;99.90;;;;;;5003539;28;20484;-62
2022/04/30 10:54:18;;;;;;;3.77;3.47;;;13.30;99.90;;;;;;4995139;28;20464;-64
2022/04/30 10:56:44;;;;;;;3.90;3.60;;;13.30;99.90;;;;;;4997414;28;20437;-61
2022/04/30 10:59:10;;;;;;;3.90;3.33;;;13.20;99.90;;;;;;4996518;28;20456;-66
2022/04/30 11:01:36;;;;;;;3.33;3.00;;;13.20;99.90;;;;;;4996245;28;20500;-64
2022/04/30 11:04:02;;;;;;;3.40;3.10;;;13.20;99.90;;;;;;5004903;28;20477;-66
2022/04/30 11:06:30;;;;;;;3.70;3.37;;;13.10;99.90;;;;;;5020785;28;20195;-65
2022/04/30 11:09:17;;;;;;;6.20;3.70;;;13.10;99.90;;;;;;5013829;28;20441;-73
2022/04/30 11:11:46;;;;;;;2.87;2.53;;;13.10;99.90;;;;;;4957316;28;20514;-60
2022/04/30 11:14:12;;;;;;;3.53;3.23;;;13.00;99.90;;;;;;4937497;28;20474;-63
2022/04/30 11:16:44;;;;;;;3.50;3.20;;;13.00;99.90;;;;;;4972522;28;20426;-62
2022/04/30 11:19:13;;;;;;;3.43;3.20;;;13.00;99.90;;;;;;4972197;28;20693;-64
2022/04/30 11:21:43;;;;;;;3.00;2.80;;;13.00;99.90;;;;;;4972225;28;20448;-61
2022/04/30 11:24:10;;;;;;;3.50;3.27;;;13.00;99.90;;;;;;4972714;28;20479;-62
2022/04/30 11:26:40;;;;;;;2.90;2.70;;;13.10;99.90;;;;;;4972020;28;20435;-61
2022/04/30 11:29:11;;;;;;;2.37;2.17;;;13.30;99.90;;;;;;4971986;28;20445;-64
2022/04/30 11:31:38;;;;;;;2.37;2.17;;;13.60;99.90;;;;;;4972041;28;20434;-66
2022/04/30 11:34:11;;;;;;;2.80;2.60;;;13.90;99.90;;;;;;4972491;28;20466;-62
2022/04/30 11:36:41;;;;;;;1.90;1.80;;;14.20;99.90;;;;;;4971792;28;20475;-65
2022/04/30 11:39:10;;;;;;;1.83;1.70;;;14.30;99.90;;;;;;4955796;28;20514;-63
2022/04/30 11:41:46;;;;;;;2.03;1.93;;;14.30;99.90;;;;;;4972374;28;20735;-65
2022/04/30 11:44:13;;;;;;;2.10;1.93;;;14.40;99.90;;;;;;4971397;28;20950;-65
2022/04/30 11:46:43;;;;;;;2.73;2.40;;;14.50;99.90;;;;;;4971650;28;20439;-68
2022/04/30 11:49:19;;;;;;;1.87;1.77;;;14.60;99.90;;;;;;4997818;28;20552;-64
2022/04/30 11:51:47;;;;;;;2.50;2.30;;;14.70;99.90;;;;;;5013749;28;20488;-66
2022/04/30 11:54:16;;;;;;;2.10;1.93;;;14.70;99.90;;;;;;5009512;28;20808;-63
2022/04/30 11:56:43;;;;;;;2.43;2.30;;;14.80;99.90;;;;;;5013230;28;20413;-67
2022/04/30 11:59:09;;;;;;;2.27;2.17;;;14.80;99.90;;;;;;5007366;28;20434;-63
2022/04/30 12:01:38;;;;;;;2.67;2.57;;;14.90;99.90;;;;;;5003065;28;20535;-62
2022/04/30 12:04:11;;;;;;;2.97;2.77;;;15.10;99.90;;;;;;5007005;28;20427;-63
2022/04/30 12:06:38;;;;;;;2.30;2.20;;;15.40;99.90;;;;;;4999417;28;20434;-65
2022/04/30 12:09:20;;;;;;;2.17;2.07;;;15.70;99.90;;;;;;5011254;28;20950;-63
2022/04/30 12:11:51;;;;;;;3.00;2.70;;;15.70;99.90;;;;;;5025497;28;20523;-64
2022/04/30 12:14:20;;;;;;;2.70;2.50;;;15.80;99.90;;;;;;5021756;28;20464;-64
2022/04/30 12:16:48;;;;;;;2.40;2.20;;;16.00;99.90;;;;;;5010497;28;20418;-64
2022/04/30 12:25:12;;;;;;;2.43;2.23;;;16.20;99.90;;;;;;5013208;28;20426;-61
2022/04/30 12:27:40;;;;;;;1.90;1.80;;;15.90;99.90;;;;;;5011199;28;20412;-63
2022/04/30 12:30:16;;;;;;;1.67;1.57;;;15.90;99.90;;;;;;5011950;28;20758;-63
2022/04/30 12:32:58;;;;;;;4.57;2.00;;;15.80;99.90;;;;;;5010700;28;20868;-63
2022/04/30 12:35:32;;;;;;;1.80;1.70;;;16.00;99.90;;;;;;5035112;28;20429;-62
2022/04/30 12:38:05;;;;;;;2.20;2.10;;;16.00;99.90;;;;;;5034977;28;20447;-63
2022/04/30 12:40:31;;;;;;;2.10;2.00;;;16.00;99.90;;;;;;5036706;28;20415;-64
2022/04/30 12:42:57;;;;;;;2.00;1.90;;;16.00;99.90;;;;;;5036352;28;20498;-66
2022/04/30 12:45:23;;;;;;;2.07;1.97;;;15.90;99.90;;;;;;5036883;28;20857;-67
2022/04/30 12:47:49;;;;;;;1.80;1.70;;;15.90;99.90;;;;;;5024722;28;20639;-69
2022/04/30 12:50:16;;;;;;;2.00;1.87;;;16.00;99.90;;;;;;5016322;28;20429;-65
2022/04/30 12:52:42;;;;;;;2.50;2.30;;;16.10;99.90;;;;;;5016389;28;20501;-69
2022/04/30 12:55:08;;;;;;;2.73;2.53;;;16.00;99.90;;;;;;5016612;28;20484;-66
2022/04/30 12:57:34;;;;;;;2.87;2.67;;;16.00;99.90;;;;;;5016031;28;20427;-66
2022/04/30 13:00:00;;;;;;;2.60;2.40;;;15.90;99.90;;;;;;5016189;28;20519;-66
2022/04/30 13:02:27;;;;;;;2.60;2.40;;;15.80;99.90;;;;;;5014645;28;20272;-66
2022/04/30 13:04:52;;;;;;;2.13;1.93;;;15.60;99.90;;;;;;5016341;28;20172;-66
2022/04/30 13:07:19;;;;;;;2.20;2.00;;;15.40;99.90;;;;;;5015949;28;20457;-67
2022/04/30 13:15:13;;;;;;;2.67;2.47;;;15.10;99.90;;;;;;5015992;28;20476;-62
2022/04/30 13:17:39;;;;;;;2.77;2.37;;;14.90;99.90;;;;;;5021423;28;20424;-68
2022/04/30 13:20:05;;;;;;;2.50;2.30;;;14.70;99.90;;;;;;5035596;28;20435;-67
2022/04/30 13:22:32;;;;;;;3.03;2.73;;;14.60;99.90;;;;;;5035469;28;20167;-67
2022/04/30 13:24:58;;;;;;;2.33;2.13;;;14.60;99.90;;;;;;5015855;28;20412;-67
2022/04/30 13:27:24;;;;;;;3.50;3.00;;;14.70;99.90;;;;;;5024886;28;20420;-64